Time;durP1;ratioP1;P1;durP2;ratioP2;P2;SDS_P1;SDS_P2;PMS_P1;PMS_P2;Temp;Humidity;BMP_temperature;BMP_pressure;BME280_temperature;BME280_humidity;BME280_pressure;Samples;Min_cycle;Max_cycle;Signal;HPM_P1;HPM_P2
2022/07/20 00:00:40;;;;;;;0.90;0.90;;;;;;;24.04;47.74;95566.41;4403143;32;20229;-44
2022/07/20 00:03:11;;;;;;;1.00;1.00;;;;;;;24.03;48.36;95571.06;4399139;32;20224;-44
2022/07/20 00:05:38;;;;;;;0.43;0.43;;;;;;;24.03;48.10;95562.16;4403757;32;20187;-44
2022/07/20 00:08:03;;;;;;;0.83;0.83;;;;;;;24.01;48.15;95564.44;4401552;32;20219;-44
2022/07/20 00:13:14;;;;;;;0.47;0.47;;;;;;;23.97;48.44;95567.91;4403900;32;20197;-43
2022/07/20 00:15:39;;;;;;;6.43;1.40;;;;;;;23.95;48.75;95569.41;4398268;32;20180;-45
2022/07/20 00:18:05;;;;;;;0.83;0.83;;;;;;;23.92;48.91;95567.44;4403416;32;20216;-44
2022/07/20 00:20:31;;;;;;;1.03;0.60;;;;;;;23.89;48.88;95571.72;4401498;32;20198;-45
2022/07/20 00:22:58;;;;;;;1.50;1.40;;;;;;;23.83;48.78;95572.41;4405378;32;20215;-43
2022/07/20 00:25:24;;;;;;;1.53;1.13;;;;;;;23.85;49.20;95567.41;4390672;32;20225;-43
2022/07/20 00:27:49;;;;;;;1.27;1.10;;;;;;;23.84;49.20;95569.31;4400219;32;20263;-45
2022/07/20 00:30:15;;;;;;;0.60;0.60;;;;;;;23.76;49.18;95566.91;4392655;32;20195;-43
2022/07/20 00:32:42;;;;;;;1.30;1.20;;;;;;;23.73;49.94;95568.44;4399152;32;20249;-45
2022/07/20 00:35:09;;;;;;;2.07;0.87;;;;;;;23.72;49.75;95560.66;4399802;32;20198;-44
2022/07/20 00:37:35;;;;;;;0.77;0.77;;;;;;;23.70;49.51;95560.25;4399502;32;20181;-44
2022/07/20 00:40:01;;;;;;;0.63;0.63;;;;;;;23.66;49.42;95552.13;4399349;32;20195;-46
2022/07/20 00:42:26;;;;;;;1.07;1.07;;;;;;;23.69;49.94;95559.50;4400114;32;20299;-44
2022/07/20 00:44:52;;;;;;;3.80;1.40;;;;;;;23.62;49.73;95557.50;4402954;32;20202;-45
2022/07/20 00:47:17;;;;;;;3.23;1.43;;;;;;;23.61;50.40;95549.72;4399672;32;20244;-42
2022/07/20 00:49:42;;;;;;;0.77;0.77;;;;;;;23.58;50.01;95547.75;4394826;32;20191;-43
2022/07/20 00:52:08;;;;;;;1.07;1.07;;;;;;;23.59;50.15;95554.75;4399408;32;20270;-43
2022/07/20 00:54:34;;;;;;;1.40;1.30;;;;;;;23.58;50.42;95545.06;4401707;32;20184;-45
2022/07/20 00:56:59;;;;;;;0.90;0.90;;;;;;;23.56;49.80;95547.34;4404929;32;20184;-44
2022/07/20 00:59:25;;;;;;;0.83;0.83;;;;;;;23.52;50.06;95541.87;4401297;32;20187;-45
2022/07/20 01:01:50;;;;;;;1.37;1.27;;;;;;;23.47;50.08;95534.09;4399230;32;20282;-43
2022/07/20 01:04:16;;;;;;;1.03;0.93;;;;;;;23.52;50.89;95543.81;4400901;32;20199;-44
2022/07/20 01:06:41;;;;;;;0.90;0.90;;;;;;;23.51;50.47;95544.94;4399824;32;20204;-45
2022/07/20 01:09:06;;;;;;;0.63;0.63;;;;;;;23.49;50.66;95539.09;4395983;32;20188;-46
2022/07/20 01:11:33;;;;;;;1.00;1.00;;;;;;;23.49;50.75;95541.81;4402849;32;20219;-47
2022/07/20 01:14:04;;;;;;;1.00;0.97;;;;;;;23.45;50.91;95546.44;4405211;32;20176;-44
2022/07/20 01:16:30;;;;;;;1.27;1.17;;;;;;;23.46;50.48;95548.00;4400358;32;20184;-56
2022/07/20 01:18:56;;;;;;;1.27;1.17;;;;;;;23.39;50.74;95547.91;4402297;32;20222;-43
2022/07/20 01:21:21;;;;;;;1.73;1.67;;;;;;;23.35;51.02;95541.66;4403085;32;20184;-44
2022/07/20 01:23:46;;;;;;;0.83;0.83;;;;;;;23.28;51.06;95535.00;4402409;32;20272;-46
2022/07/20 01:26:18;;;;;;;0.57;0.57;;;;;;;23.25;51.11;95526.87;4404830;32;20227;-44
2022/07/20 01:28:44;;;;;;;0.90;0.90;;;;;;;23.20;51.26;95527.97;4397131;32;20210;-45
2022/07/20 01:31:09;;;;;;;0.93;0.93;;;;;;;23.27;51.47;95524.56;4406209;32;20191;-44
2022/07/20 01:33:35;;;;;;;1.40;1.40;;;;;;;23.16;51.58;95524.44;4404297;32;20210;-47
2022/07/20 01:36:00;;;;;;;1.00;1.00;;;;;;;23.15;51.45;95530.22;4402249;32;20184;-55
2022/07/20 01:38:26;;;;;;;1.20;1.13;;;;;;;23.20;51.91;95532.59;4405075;32;20192;-47
2022/07/20 01:40:51;;;;;;;0.77;0.77;;;;;;;23.16;51.62;95535.25;4404265;32;20247;-45
2022/07/20 01:43:16;;;;;;;1.07;0.87;;;;;;;23.15;51.67;95528.28;4404952;32;20195;-44
2022/07/20 01:45:42;;;;;;;1.23;1.23;;;;;;;23.13;51.88;95524.38;4403383;32;20246;-43
2022/07/20 01:48:07;;;;;;;10.03;1.57;;;;;;;23.13;51.99;95527.87;4404837;32;20184;-43
2022/07/20 01:50:33;;;;;;;1.20;1.20;;;;;;;23.08;52.08;95530.91;4404146;32;20264;-43
2022/07/20 01:52:58;;;;;;;0.93;0.93;;;;;;;23.07;52.20;95526.63;4405175;32;20191;-43
2022/07/20 01:55:24;;;;;;;1.03;0.93;;;;;;;23.08;52.15;95532.81;4400091;32;20189;-46
2022/07/20 01:57:49;;;;;;;1.03;1.03;;;;;;;23.07;52.11;95532.03;4405088;32;20203;-44
2022/07/20 02:00:15;;;;;;;1.23;1.03;;;;;;;23.02;52.34;95528.91;4402546;32;20188;-45
2022/07/20 02:02:41;;;;;;;1.13;1.03;;;;;;;23.03;52.43;95525.84;4403189;32;20209;-45
2022/07/20 02:05:08;;;;;;;1.33;1.33;;;;;;;22.97;52.99;95532.72;4399231;32;20188;-43
2022/07/20 02:07:35;;;;;;;1.03;1.03;;;;;;;22.91;53.00;95523.34;4405739;32;20184;-44
2022/07/20 02:10:01;;;;;;;1.43;1.30;;;;;;;22.85;53.35;95531.03;4402904;32;20183;-55
2022/07/20 02:12:26;;;;;;;1.07;1.07;;;;;;;22.82;53.43;95530.97;4400837;32;20248;-45
2022/07/20 02:14:51;;;;;;;1.03;0.93;;;;;;;22.78;53.55;95530.12;4403776;32;20216;-45
2022/07/20 02:17:17;;;;;;;1.80;1.57;;;;;;;22.83;53.27;95527.13;4402796;32;20272;-45
2022/07/20 02:19:42;;;;;;;0.80;0.80;;;;;;;22.86;53.32;95526.37;4393920;32;20242;-46
2022/07/20 02:22:07;;;;;;;0.67;0.67;;;;;;;22.91;53.10;95524.12;4402871;32;20207;-45
2022/07/20 02:24:33;;;;;;;1.53;1.27;;;;;;;22.84;53.43;95524.06;4402243;32;20190;-46
2022/07/20 02:26:58;;;;;;;1.07;1.07;;;;;;;22.88;53.35;95529.47;4404620;32;20259;-44
2022/07/20 02:29:23;;;;;;;0.57;0.57;;;;;;;22.93;53.21;95532.66;4399095;32;20202;-44
2022/07/20 02:31:49;;;;;;;0.40;0.40;;;;;;;22.90;53.35;95527.97;4403216;32;20203;-44
2022/07/20 02:34:14;;;;;;;0.80;0.80;;;;;;;22.83;53.68;95529.81;4399492;32;20207;-44
2022/07/20 02:36:40;;;;;;;1.00;1.00;;;;;;;22.81;53.58;95532.91;4400645;32;20198;-44
2022/07/20 02:39:05;;;;;;;0.80;0.80;;;;;;;22.83;53.60;95524.41;4402308;32;20241;-45
2022/07/20 02:41:32;;;;;;;0.87;0.87;;;;;;;22.82;53.65;95520.16;4401366;32;20188;-46
2022/07/20 02:43:58;;;;;;;3.93;1.20;;;;;;;22.78;53.86;95525.50;4405304;32;20180;-43
2022/07/20 02:46:23;;;;;;;0.73;0.73;;;;;;;22.73;54.10;95533.13;4399869;32;20294;-45
2022/07/20 02:48:49;;;;;;;0.83;0.83;;;;;;;22.80;53.85;95527.84;4394661;32;20202;-45
2022/07/20 02:51:14;;;;;;;1.00;1.00;;;;;;;22.82;53.74;95533.69;4401846;32;20199;-43
2022/07/20 02:53:39;;;;;;;1.57;1.47;;;;;;;22.84;53.73;95521.34;4401273;32;20195;-44
2022/07/20 02:56:05;;;;;;;0.60;0.60;;;;;;;22.85;53.62;95522.13;4390458;32;20198;-44
2022/07/20 02:58:30;;;;;;;0.83;0.83;;;;;;;22.86;53.93;95526.37;4397673;32;20196;-55
2022/07/20 03:00:57;;;;;;;0.50;0.50;;;;;;;22.86;53.75;95515.56;4403399;32;20194;-42
2022/07/20 03:03:22;;;;;;;1.63;0.73;;;;;;;22.87;53.92;95525.22;4403001;32;20263;-45
2022/07/20 03:05:48;;;;;;;0.90;0.90;;;;;;;22.84;53.74;95534.87;4404288;32;20180;-46
2022/07/20 03:08:13;;;;;;;5.63;1.10;;;;;;;22.77;53.95;95528.53;4400467;32;20192;-44
2022/07/20 03:10:39;;;;;;;0.67;0.67;;;;;;;22.77;54.01;95534.78;4399615;32;20193;-44
2022/07/20 03:13:04;;;;;;;3.00;0.73;;;;;;;22.80;53.87;95530.56;4404360;32;20188;-44
2022/07/20 03:15:30;;;;;;;1.27;1.27;;;;;;;22.81;53.83;95529.41;4404045;32;20309;-47
2022/07/20 03:17:55;;;;;;;0.67;0.67;;;;;;;22.80;53.97;95533.25;4402669;32;20184;-45
2022/07/20 03:20:29;;;;;;;0.50;0.50;;;;;;;22.82;53.76;95539.88;4403363;32;20267;-44
2022/07/20 03:22:55;;;;;;;1.10;1.10;;;;;;;22.82;53.96;95541.78;4403783;32;20180;-43
2022/07/20 03:25:21;;;;;;;1.23;1.13;;;;;;;22.82;53.93;95541.78;4404162;32;20275;-44
2022/07/20 03:27:47;;;;;;;0.60;0.60;;;;;;;22.83;53.90;95546.06;4400126;32;20176;-45
2022/07/20 03:30:13;;;;;;;0.87;0.87;;;;;;;22.82;54.11;95544.50;4402257;32;20245;-45
2022/07/20 03:32:38;;;;;;;1.10;1.07;;;;;;;22.81;54.04;95540.22;4402554;32;20192;-46
2022/07/20 03:35:05;;;;;;;0.50;0.50;;;;;;;22.77;54.23;95547.47;4399412;32;20198;-43
2022/07/20 03:37:30;;;;;;;1.37;0.87;;;;;;;22.67;54.61;95551.59;4404959;32;20259;-43
2022/07/20 03:39:55;;;;;;;1.17;1.17;;;;;;;22.67;54.57;95556.22;4400365;32;20191;-44
2022/07/20 03:42:21;;;;;;;2.23;1.43;;;;;;;22.56;54.98;95540.63;4403849;32;20180;-44
2022/07/20 03:44:46;;;;;;;0.97;0.80;;;;;;;22.58;54.87;95543.75;4401483;32;20181;-45
2022/07/20 03:47:12;;;;;;;1.10;1.10;;;;;;;22.58;54.82;95549.16;4400385;32;20245;-46
2022/07/20 03:49:37;;;;;;;1.37;1.37;;;;;;;22.61;54.84;95551.16;4402152;32;20254;-44
2022/07/20 03:52:03;;;;;;;0.63;0.63;;;;;;;22.59;54.98;95542.59;4392465;32;20256;-44
2022/07/20 03:54:28;;;;;;;1.20;1.20;;;;;;;22.57;54.97;95552.22;4403391;32;20180;-45
2022/07/20 03:56:54;;;;;;;1.20;1.20;;;;;;;22.59;55.08;95550.72;4395680;32;20184;-43
2022/07/20 03:59:19;;;;;;;1.20;1.20;;;;;;;22.45;55.63;95544.31;4402387;32;20188;-45
2022/07/20 04:01:44;;;;;;;2.10;1.83;;;;;;;22.47;55.62;95547.44;4395367;32;20293;-44
2022/07/20 04:04:09;;;;;;;1.00;1.00;;;;;;;22.47;55.68;95548.22;4401179;32;20177;-46
2022/07/20 04:06:36;;;;;;;0.90;0.90;;;;;;;22.50;55.61;95550.19;4392540;32;20203;-45
2022/07/20 04:09:01;;;;;;;0.87;0.87;;;;;;;22.49;55.54;95542.44;4403632;32;20191;-43
2022/07/20 04:11:26;;;;;;;5.30;1.37;;;;;;;22.52;55.56;95550.59;4400016;32;20184;-45
2022/07/20 04:13:52;;;;;;;1.10;1.10;;;;;;;22.34;56.46;95554.97;4400394;32;20217;-43
2022/07/20 04:16:18;;;;;;;2.57;1.33;;;;;;;22.45;55.96;95545.09;4400488;32;20195;-43
2022/07/20 04:18:43;;;;;;;1.43;1.43;;;;;;;22.44;56.17;95551.66;4395400;32;20179;-44
2022/07/20 04:21:08;;;;;;;6.70;1.10;;;;;;;22.47;56.57;95553.62;4400744;32;20214;-45
2022/07/20 04:23:34;;;;;;;1.50;1.40;;;;;;;22.47;56.40;95553.62;4402728;32;20184;-47
2022/07/20 04:25:59;;;;;;;1.00;1.00;;;;;;;22.50;56.02;95552.91;4401800;32;20184;-44
2022/07/20 04:28:25;;;;;;;0.70;0.70;;;;;;;22.52;56.31;95556.00;4398162;32;20179;-45
2022/07/20 04:30:50;;;;;;;0.70;0.70;;;;;;;22.45;56.78;95552.41;4400710;32;20271;-45
2022/07/20 04:33:18;;;;;;;1.40;1.30;;;;;;;22.50;56.18;95546.69;4391611;32;20181;-43
2022/07/20 04:35:44;;;;;;;0.97;0.97;;;;;;;22.53;56.74;95562.22;4395734;32;20253;-44
2022/07/20 04:38:09;;;;;;;1.67;1.57;;;;;;;22.58;56.44;95554.56;4391409;32;20192;-44
2022/07/20 04:40:34;;;;;;;0.87;0.87;;;;;;;22.47;56.89;95563.66;4397703;32;20231;-43
2022/07/20 04:42:59;;;;;;;0.97;0.97;;;;;;;22.49;56.69;95559.44;4391566;32;20192;-45
2022/07/20 04:45:25;;;;;;;1.83;1.73;;;;;;;22.53;56.43;95557.59;4388902;32;20180;-46
2022/07/20 04:47:50;;;;;;;1.00;1.00;;;;;;;22.49;56.92;95561.38;4392513;32;20263;-45
2022/07/20 04:50:16;;;;;;;1.00;1.00;;;;;;;22.51;56.92;95569.91;4400372;32;20195;-44
2022/07/20 04:52:42;;;;;;;12.33;1.43;;;;;;;22.47;57.08;95569.06;4403686;32;20192;-48
2022/07/20 04:55:07;;;;;;;1.03;1.03;;;;;;;22.47;56.95;95567.13;4403505;32;20275;-43
2022/07/20 04:57:33;;;;;;;0.80;0.80;;;;;;;22.48;56.84;95571.41;4404657;32;20215;-48
2022/07/20 04:59:58;;;;;;;1.00;1.00;;;;;;;22.48;57.40;95576.03;4400839;32;20188;-43
2022/07/20 05:02:24;;;;;;;1.10;1.10;;;;;;;22.49;57.01;95567.56;4404582;32;20213;-43
2022/07/20 05:04:49;;;;;;;3.93;2.10;;;;;;;22.53;56.78;95565.69;4405696;32;20215;-46
2022/07/20 05:07:15;;;;;;;1.10;1.10;;;;;;;22.58;56.57;95570.81;4404791;32;20176;-45
2022/07/20 05:09:41;;;;;;;1.57;1.43;;;;;;;22.08;59.49;95568.44;4405837;32;20244;-44
2022/07/20 05:12:07;;;;;;;1.83;1.30;;;;;;;22.24;59.17;95563.69;4404988;32;20183;-43
2022/07/20 05:14:32;;;;;;;1.57;1.47;;;;;;;22.33;58.69;95558.81;4404268;32;20203;-44
2022/07/20 05:16:57;;;;;;;1.23;1.23;;;;;;;22.34;59.74;95571.19;4402984;32;20231;-43
2022/07/20 05:19:23;;;;;;;1.37;1.27;;;;;;;22.41;58.68;95565.91;4400796;32;20184;-44
2022/07/20 05:21:48;;;;;;;1.00;1.00;;;;;;;22.37;58.78;95567.78;4402711;32;20172;-43
2022/07/20 05:24:13;;;;;;;3.50;3.27;;;;;;;21.72;62.68;95572.41;4405436;32;20188;-44
2022/07/20 05:26:39;;;;;;;2.87;2.67;;;;;;;21.74;62.14;95578.25;4403829;32;20195;-45
2022/07/20 05:29:05;;;;;;;2.63;2.43;;;;;;;22.05;60.75;95571.84;4405560;32;20202;-44
2022/07/20 05:31:30;;;;;;;1.37;1.37;;;;;;;22.19;61.03;95569.41;4395414;32;20211;-57
2022/07/20 05:33:56;;;;;;;1.60;1.53;;;;;;;22.31;60.97;95568.44;4405557;32;20195;-44
2022/07/20 05:36:22;;;;;;;2.00;1.90;;;;;;;22.26;61.14;95569.50;4403944;32;20207;-44
2022/07/20 05:38:47;;;;;;;2.87;2.27;;;;;;;22.24;61.72;95567.16;4406079;32;20168;-43
2022/07/20 05:41:12;;;;;;;1.17;1.17;;;;;;;22.16;61.84;95570.13;4404783;32;20247;-47
2022/07/20 05:43:38;;;;;;;2.63;2.53;;;;;;;22.15;62.63;95563.16;4404198;32;20198;-45
2022/07/20 05:46:06;;;;;;;3.40;2.00;;;;;;;22.34;60.41;95571.19;4401935;32;20234;-43
2022/07/20 05:48:32;;;;;;;2.03;1.93;;;;;;;22.27;62.37;95576.47;4400653;32;20237;-42
2022/07/20 05:50:57;;;;;;;2.07;1.87;;;;;;;22.16;62.27;95576.31;4395239;32;20196;-45
2022/07/20 05:53:22;;;;;;;1.57;1.47;;;;;;;22.32;60.25;95576.19;4396130;32;20291;-43
2022/07/20 05:55:48;;;;;;;1.23;1.07;;;;;;;22.53;60.03;95568.41;4401585;32;20235;-43
2022/07/20 05:58:14;;;;;;;1.73;1.63;;;;;;;22.42;62.68;95581.00;4404817;32;20199;-45
2022/07/20 06:00:39;;;;;;;1.50;1.40;;;;;;;22.56;61.52;95583.91;4398749;32;20176;-44
2022/07/20 06:03:05;;;;;;;1.60;1.60;;;;;;;22.46;63.00;95578.31;4402088;32;20208;-44
2022/07/20 06:05:31;;;;;;;1.27;1.27;;;;;;;22.62;59.21;95587.87;4401686;32;20226;-58
2022/07/20 06:08:00;;;;;;;1.53;1.20;;;;;;;22.55;63.64;95582.34;4406180;32;20184;-44
2022/07/20 06:10:26;;;;;;;1.13;1.13;;;;;;;22.72;59.04;95586.44;4402494;32;20192;-44
2022/07/20 06:12:52;;;;;;;1.27;1.27;;;;;;;22.73;62.53;95577.19;4405052;32;20172;-44
2022/07/20 06:15:18;;;;;;;0.67;0.67;;;;;;;22.85;59.03;95578.94;4403495;32;20241;-43
2022/07/20 06:17:44;;;;;;;1.87;1.70;;;;;;;22.91;59.20;95580.94;4403716;32;20282;-46
2022/07/20 06:20:12;;;;;;;4.07;1.23;;;;;;;22.95;59.20;95584.50;4405658;32;20195;-45
2022/07/20 06:22:39;;;;;;;5.87;2.70;;;;;;;23.02;60.49;95589.22;4404350;32;20237;-42
2022/07/20 06:25:05;;;;;;;4.90;1.13;;;;;;;23.08;60.07;95576.91;4397060;32;20202;-42
2022/07/20 06:27:31;;;;;;;1.63;1.53;;;;;;;23.12;58.82;95580.47;4403188;32;20255;-54
2022/07/20 06:29:58;;;;;;;1.73;1.70;;;;;;;23.16;58.76;95572.37;4408018;32;20187;-42
2022/07/20 06:32:23;;;;;;;1.37;1.37;;;;;;;23.24;58.40;95572.13;4400930;32;20181;-42
2022/07/20 06:34:49;;;;;;;1.57;1.57;;;;;;;23.31;59.38;95569.47;4401436;32;20203;-46
2022/07/20 06:37:14;;;;;;;2.70;1.67;;;;;;;23.37;59.30;95575.34;4403727;32;20214;-42
2022/07/20 06:39:39;;;;;;;1.53;1.43;;;;;;;23.47;59.03;95582.06;4400738;32;20185;-44
2022/07/20 06:42:05;;;;;;;1.60;1.50;;;;;;;23.52;58.82;95584.44;4399636;32;20200;-42
2022/07/20 06:44:30;;;;;;;1.90;1.90;;;;;;;23.66;58.61;95589.25;4399627;32;20206;-45
2022/07/20 06:46:55;;;;;;;1.70;1.70;;;;;;;23.63;58.06;95590.78;4394147;32;20233;-46
2022/07/20 06:49:21;;;;;;;1.87;1.77;;;;;;;23.72;57.52;95590.47;4400864;32;20267;-43
2022/07/20 06:51:46;;;;;;;21.67;14.57;;;;;;;23.77;57.14;95590.94;4398064;32;20211;-43
2022/07/20 06:54:11;;;;;;;8.90;8.00;;;;;;;23.85;58.65;95595.28;4400543;32;20184;-43
2022/07/20 06:56:37;;;;;;;1.90;1.80;;;;;;;23.88;57.73;95594.53;4391854;32;20188;-46
2022/07/20 06:59:03;;;;;;;4.33;3.13;;;;;;;23.91;57.05;95593.78;4401665;32;20168;-44
2022/07/20 07:01:28;;;;;;;10.87;9.63;;;;;;;23.96;57.33;95588.03;4403033;32;20184;-45
2022/07/20 07:03:53;;;;;;;9.27;8.47;;;;;;;23.97;57.44;95597.72;4405296;32;20191;-43
2022/07/20 07:06:19;;;;;;;7.10;4.73;;;;;;;24.05;59.11;95597.78;4400652;32;20219;-44
2022/07/20 07:08:44;;;;;;;12.50;10.00;;;;;;;24.05;57.71;95600.50;4399090;32;20229;-46
2022/07/20 07:11:10;;;;;;;15.90;12.30;;;;;;;24.15;58.35;95602.53;4395373;32;20198;-43
2022/07/20 07:13:35;;;;;;;6.43;5.83;;;;;;;24.18;58.51;95601.78;4402833;32;20255;-43
2022/07/20 07:16:01;;;;;;;6.90;6.33;;;;;;;24.16;58.36;95596.72;4405113;32;20180;-50
2022/07/20 07:18:26;;;;;;;3.03;2.93;;;;;;;24.23;58.86;95590.59;4405803;32;20184;-43
2022/07/20 07:20:52;;;;;;;2.63;2.43;;;;;;;24.26;57.86;95598.03;4405808;32;20207;-43
2022/07/20 07:23:17;;;;;;;3.07;2.20;;;;;;;24.36;58.14;95602.75;4399561;32;20195;-43
2022/07/20 07:25:42;;;;;;;2.10;2.00;;;;;;;24.35;58.18;95600.41;4405067;32;20221;-45
2022/07/20 07:28:08;;;;;;;1.23;1.23;;;;;;;24.35;57.78;95601.19;4403157;32;20188;-45
2022/07/20 07:30:33;;;;;;;2.20;2.03;;;;;;;24.45;57.75;95597.78;4400831;32;20234;-45
2022/07/20 07:32:58;;;;;;;2.00;1.90;;;;;;;24.57;57.12;95597.50;4398855;32;20183;-44
2022/07/20 07:35:24;;;;;;;2.00;1.93;;;;;;;24.65;57.11;95595.63;4402099;32;20185;-45
2022/07/20 07:37:49;;;;;;;1.43;1.43;;;;;;;24.81;56.84;95595.34;4404460;32;20271;-46
2022/07/20 07:40:15;;;;;;;2.13;1.93;;;;;;;24.75;57.12;95596.84;4396031;32;20215;-47
2022/07/20 07:42:40;;;;;;;3.00;2.53;;;;;;;24.69;56.56;95592.94;4400899;32;20188;-48
2022/07/20 07:45:07;;;;;;;1.60;1.60;;;;;;;24.86;56.18;95594.97;4404724;32;20206;-43
2022/07/20 07:47:34;;;;;;;1.27;1.27;;;;;;;25.04;55.69;95593.19;4398009;32;20189;-47
2022/07/20 07:49:59;;;;;;;1.77;1.70;;;;;;;25.27;54.31;95593.69;4389667;32;20259;-43
2022/07/20 07:52:25;;;;;;;2.27;2.17;;;;;;;25.47;53.65;95585.22;4401528;32;20198;-45
2022/07/20 07:54:50;;;;;;;1.80;1.73;;;;;;;25.57;53.29;95589.91;4404005;32;21721;-43
2022/07/20 07:57:15;;;;;;;2.43;2.23;;;;;;;25.56;53.46;95591.88;4399639;32;20183;-44
2022/07/20 07:59:42;;;;;;;1.90;1.80;;;;;;;25.56;53.81;95589.16;4381643;32;20184;-52
2022/07/20 08:02:08;;;;;;;2.53;2.33;;;;;;;25.01;56.10;95591.22;4406045;32;20187;-45
2022/07/20 08:04:34;;;;;;;1.93;1.83;;;;;;;24.70;57.41;95591.78;4389927;32;20194;-44
2022/07/20 08:06:59;;;;;;;1.73;1.63;;;;;;;24.91;56.02;95589.22;4412504;32;20182;-45
2022/07/20 08:09:26;;;;;;;2.20;2.10;;;;;;;25.03;56.18;95582.69;4408830;32;20239;-42
2022/07/20 08:11:52;;;;;;;1.87;1.77;;;;;;;24.71;57.49;95587.91;4411692;32;20367;-44
2022/07/20 08:14:19;;;;;;;1.57;1.57;;;;;;;24.84;55.32;95589.16;4412516;32;20160;-41
2022/07/20 08:16:45;;;;;;;2.50;2.30;;;;;;;25.18;55.67;95590.53;4393856;32;20211;-46
2022/07/20 08:19:12;;;;;;;1.70;1.60;;;;;;;24.85;56.86;95588.00;4400584;32;20203;-48
2022/07/20 08:21:38;;;;;;;1.43;1.43;;;;;;;24.96;56.27;95594.28;4400530;32;20183;-44
2022/07/20 08:24:07;;;;;;;2.40;2.30;;;;;;;24.71;57.20;95590.63;4409124;32;20248;-46
2022/07/20 08:26:33;;;;;;;1.90;1.90;;;;;;;24.91;55.52;95586.50;4411532;32;20169;-46
2022/07/20 08:28:58;;;;;;;2.80;2.70;;;;;;;24.71;57.09;95580.56;4403942;32;20171;-45
2022/07/20 08:31:23;;;;;;;2.43;2.23;;;;;;;24.93;55.76;95584.97;4412663;32;20182;-44
2022/07/20 08:33:50;;;;;;;1.43;1.40;;;;;;;25.10;55.36;95586.25;4409171;32;20171;-41
2022/07/20 08:36:15;;;;;;;3.00;2.10;;;;;;;24.99;55.61;95588.09;4397109;32;20260;-42
2022/07/20 08:38:41;;;;;;;1.30;1.30;;;;;;;25.00;55.14;95587.72;4410965;32;20168;-44
2022/07/20 08:41:08;;;;;;;1.70;1.60;;;;;;;25.28;52.34;95583.59;4411638;32;20164;-41
2022/07/20 08:43:34;;;;;;;2.97;2.80;;;;;;;25.17;53.84;95575.41;4412746;32;20169;-41
2022/07/20 08:46:04;;;;;;;3.97;1.93;;;;;;;25.25;53.54;95582.44;4405177;32;20184;-41
2022/07/20 08:48:34;;;;;;;0.93;0.93;;;;;;;25.17;53.54;95577.34;4410260;32;20168;-42
2022/07/20 08:50:59;;;;;;;1.43;1.43;;;;;;;25.09;53.54;95576.53;4412485;32;20219;-44
2022/07/20 08:53:26;;;;;;;1.00;1.00;;;;;;;25.36;52.56;95573.56;4403970;32;20248;-41
2022/07/20 08:55:53;;;;;;;1.47;1.43;;;;;;;25.23;53.12;95576.59;4394081;32;20248;-42
2022/07/20 08:58:18;;;;;;;1.83;1.73;;;;;;;25.76;51.07;95570.63;4402758;32;20184;-61
2022/07/20 09:00:46;;;;;;;2.47;2.27;;;;;;;26.13;49.34;95577.66;4402799;32;20233;-62
2022/07/20 09:03:12;;;;;;;8.47;7.93;;;;;;;26.60;47.96;95573.81;4397507;32;20206;-63
2022/07/20 09:05:41;;;;;;;4.73;4.27;;;;;;;26.72;47.59;95572.63;4354124;32;20263;-61
2022/07/20 09:08:11;;;;;;;2.17;2.07;;;;;;;26.90;47.38;95573.37;4321188;32;20295;-62
2022/07/20 09:10:39;;;;;;;2.57;1.83;;;;;;;27.08;46.50;95576.84;4381554;32;20197;-61
2022/07/20 09:13:17;;;;;;;1.97;1.87;;;;;;;27.24;45.84;95574.47;4383260;32;20245;-61
2022/07/20 09:15:49;;;;;;;1.60;1.53;;;;;;;27.46;45.55;95577.12;4394656;32;20295;-61
2022/07/20 09:18:25;;;;;;;2.10;1.40;;;;;;;27.57;45.72;95575.13;4393253;32;20202;-62
2022/07/20 09:21:02;;;;;;;1.57;1.57;;;;;;;27.59;45.02;95572.81;4398231;32;20187;-62
2022/07/20 09:23:43;;;;;;;3.00;1.70;;;;;;;27.79;43.78;95573.88;4349568;32;20223;-62
2022/07/20 09:26:16;;;;;;;1.73;1.73;;;;;;;27.96;42.78;95567.53;4402243;32;20184;-61
2022/07/20 09:28:55;;;;;;;2.17;2.07;;;;;;;28.01;42.88;95569.84;4354577;32;20180;-61
2022/07/20 09:31:30;;;;;;;1.20;1.20;;;;;;;28.03;42.46;95570.25;4376747;32;20184;-62
2022/07/20 09:33:57;;;;;;;1.67;1.67;;;;;;;28.12;42.20;95569.78;4380661;32;20214;-62
2022/07/20 09:36:26;;;;;;;1.33;1.30;;;;;;;28.23;41.98;95575.97;4379517;32;20184;-62
2022/07/20 09:38:53;;;;;;;2.60;2.43;;;;;;;28.32;40.94;95576.28;4358079;32;20275;-61
2022/07/20 09:41:33;;;;;;;1.57;1.47;;;;;;;28.49;41.51;95574.59;4378581;32;20267;-61
2022/07/20 09:44:02;;;;;;;2.30;2.10;;;;;;;28.51;40.73;95572.22;4401806;32;20192;-62
2022/07/20 09:46:37;;;;;;;1.43;1.30;;;;;;;28.65;40.56;95565.87;4370387;32;20183;-62
2022/07/20 09:49:07;;;;;;;1.50;1.50;;;;;;;28.96;39.42;95574.97;4395319;32;20246;-62
2022/07/20 09:51:48;;;;;;;2.77;2.40;;;;;;;28.95;39.63;95570.69;4404508;32;20194;-62
2022/07/20 09:54:20;;;;;;;1.50;1.40;;;;;;;28.94;40.25;95567.19;4401243;32;20217;-61
2022/07/20 09:56:48;;;;;;;1.60;1.50;;;;;;;29.08;39.10;95571.75;4398014;32;20192;-62
2022/07/20 09:59:15;;;;;;;1.70;1.37;;;;;;;29.15;38.90;95571.63;4384879;32;20199;-62
2022/07/20 10:01:50;;;;;;;1.70;1.60;;;;;;;29.25;38.59;95565.28;4396012;32;20191;-62
2022/07/20 10:04:18;;;;;;;13.77;1.67;;;;;;;29.51;37.98;95571.28;4395552;32;20306;-62
2022/07/20 10:06:54;;;;;;;1.73;1.70;;;;;;;29.57;38.64;95569.62;4396006;32;20192;-62
2022/07/20 10:09:22;;;;;;;2.20;2.10;;;;;;;29.40;38.91;95568.66;4393342;32;20192;-61
2022/07/20 10:11:49;;;;;;;1.30;1.20;;;;;;;29.33;38.08;95566.75;4399864;32;20191;-62
2022/07/20 10:14:22;;;;;;;1.50;1.40;;;;;;;29.37;37.15;95567.47;4359963;32;20235;-62
2022/07/20 10:16:55;;;;;;;1.67;1.67;;;;;;;29.43;37.49;95564.34;4376496;32;20216;-62
2022/07/20 10:19:46;;;;;;;1.93;1.93;;;;;;;29.64;37.37;95569.53;4396869;32;20207;-62
2022/07/20 10:22:13;;;;;;;1.80;1.53;;;;;;;29.78;36.95;95572.06;4393599;32;20233;-61
2022/07/20 10:24:43;;;;;;;1.27;1.17;;;;;;;29.95;36.80;95576.53;4389011;32;20199;-61
2022/07/20 10:27:13;;;;;;;1.20;1.20;;;;;;;30.15;36.46;95567.66;4403512;32;20204;-62
2022/07/20 10:29:43;;;;;;;2.53;2.33;;;;;;;30.32;35.28;95564.69;4380989;32;20192;-61
2022/07/20 10:32:14;;;;;;;1.40;1.40;;;;;;;30.42;34.80;95571.16;4386257;32;20251;-62
2022/07/20 10:34:42;;;;;;;1.73;1.63;;;;;;;30.45;34.61;95570.34;4358127;32;20197;-61
2022/07/20 10:37:49;;;;;;;1.63;1.63;;;;;;;30.45;34.59;95567.59;4394681;32;20234;-62
2022/07/20 10:40:22;;;;;;;1.97;1.87;;;;;;;30.38;34.68;95565.75;4360184;32;20250;-62
2022/07/20 10:43:10;;;;;;;1.47;1.47;;;;;;;30.57;33.71;95569.75;4400971;32;20218;-62
2022/07/20 10:45:40;;;;;;;1.20;1.20;;;;;;;30.29;35.07;95570.22;4370424;32;20200;-61
2022/07/20 10:48:12;;;;;;;1.37;1.37;;;;;;;30.44;33.78;95568.78;4365476;32;20196;-62
2022/07/20 10:50:58;;;;;;;0.90;0.90;;;;;;;30.41;33.96;95567.66;4401025;32;20277;-62
2022/07/20 10:53:31;;;;;;;1.10;1.10;;;;;;;30.28;33.46;95565.91;4361203;32;20192;-62
2022/07/20 10:55:58;;;;;;;1.33;1.33;;;;;;;30.34;33.66;95576.00;4377599;32;20197;-61
2022/07/20 10:58:33;;;;;;;0.90;0.90;;;;;;;30.40;33.23;95568.84;4390967;32;20196;-61
2022/07/20 11:01:10;;;;;;;3.57;1.23;;;;;;;30.58;32.73;95565.84;4393281;32;20215;-62
2022/07/20 11:03:38;;;;;;;1.43;1.33;;;;;;;30.65;33.17;95562.22;4365482;32;20192;-62
2022/07/20 11:06:22;;;;;;;1.40;1.40;;;;;;;30.66;33.43;95552.81;4379035;32;20255;-62
2022/07/20 11:08:55;;;;;;;1.37;1.30;;;;;;;30.75;33.31;95559.28;4374696;32;20196;-61
2022/07/20 11:11:27;;;;;;;1.33;1.23;;;;;;;30.59;33.57;95553.69;4393811;32;22642;-62
2022/07/20 11:13:53;;;;;;;2.03;1.93;;;;;;;30.62;33.55;95555.59;4402103;32;20199;-61
2022/07/20 11:16:26;;;;;;;1.33;1.33;;;;;;;30.56;33.28;95551.00;4368125;32;20205;-62
2022/07/20 11:18:53;;;;;;;1.70;1.30;;;;;;;30.60;32.92;95552.50;4399363;32;20321;-62
2022/07/20 11:21:43;;;;;;;4.10;1.87;;;;;;;30.69;34.22;95550.00;4388796;32;20245;-61
2022/07/20 11:24:34;;;;;;;1.53;1.43;;;;;;;30.71;32.32;95547.63;4391397;32;20188;-61
2022/07/20 11:27:21;;;;;;;1.20;1.13;;;;;;;30.86;31.81;95544.63;4400410;32;20212;-61
2022/07/20 11:29:51;;;;;;;5.13;2.83;;;;;;;30.95;33.02;95542.13;4398560;32;20229;-62
2022/07/20 11:32:18;;;;;;;1.80;1.77;;;;;;;30.80;32.48;95544.31;4387381;32;20291;-62
2022/07/20 11:34:53;;;;;;;1.83;1.70;;;;;;;30.73;33.08;95539.75;4368728;32;20200;-62
2022/07/20 11:37:22;;;;;;;1.83;1.73;;;;;;;30.72;33.50;95546.44;4390622;32;20209;-61